Skip Navigation Links
NOAA logo - Click to go to the NOAA homepage
NOAA's National Weather Service
Alaska Aviation Weather Unit
  NWS logo - Click to go to the NWS homepage
Left Navbar Graphic     22 AKDT = 06 GMT

   
NOAA is celebrating 200 years of science, service, and stewardship. Visit the NOAA 200th celebration Web site to learn more.
USA.gov is the U.S. Government's official Web portal to all Federal, state and local government Web resources and services.
Facebook
NWS on Facebook

Important Change Regarding the AAWU Web Presence

 

Over the last several months, the AAWU has been working to navigate its webpages to a nationally supported server. Security, as well as other needs, have necessitated the change.  In the process, we have made an effort to enhance the functionality of our website, as well as some of our products. As of June 20, 2017, aawu.arh.noaa.gov will be discontinued. The new AAWU web address is weather.gov/aawu. It is now live and will run in-parallel with the old site until it is discontinued. Please send any feedback or questions regarding the new webpages to nws.ar.aawu.webauthors@noaa.gov.  Thank you for your patience during this time of transition.
AAWU Home :: Display TAF Add Bookmark
METAR PAHL 280056Z AUTO 13009KT 10SM FEW044 11/00 A3000 RMK AO2 SLP170
     T01060000=

METAR PAHL 280156Z AUTO 17010KT 10SM CLR 11/M01 A3000 RMK AO2 SLP170
     T01061006=

METAR PAHL 280256Z AUTO VRB03KT 10SM CLR 10/01 A2999 RMK AO2 SLP167
     T01000006 58007=

METAR PAHL 280356Z AUTO VRB03KT 10SM CLR 11/M02 A2998 RMK AO2 SLP162
     T01061017=

METAR PAHL 280456Z AUTO 19010G18KT 10SM CLR 09/01 A2998 RMK AO2
 SLP164 T00940006=

METAR PAHL 280556Z AUTO 00000KT 10SM CLR 08/01 A2998 RMK AO2 SLP164
 T00780006 10117 20078 55002=


NOAA's National Weather Service
Alaska Aviation Weather Unit
6930 Sand Lake Road
Anchorage, AK 99502-1845
Disclaimer
Credits
Glossary
Privacy Policy
About Us
Career Opportunities
Contact AAWU Internet Services Site last modified: April, 17th 2012